Time;durP1;ratioP1;P1;durP2;ratioP2;P2;SDS_P1;SDS_P2;PMS_P1;PMS_P2;Temp;Humidity;BMP_temperature;BMP_pressure;BME280_temperature;BME280_humidity;BME280_pressure;Samples;Min_cycle;Max_cycle;Signal;HPM_P1;HPM_P2
2021/08/12 00:02:24;;;;;;;11.77;5.03;;;;;;;28.79;48.57;101296.50;143724;573;47004;-88
2021/08/12 00:04:52;;;;;;;9.85;5.25;;;;;;;28.79;49.04;101297.31;143728;579;45926;-87
2021/08/12 00:07:21;;;;;;;7.30;4.57;;;;;;;28.74;48.79;101302.97;143727;690;47002;-88
2021/08/12 00:09:49;;;;;;;11.55;5.00;;;;;;;28.73;48.96;101299.34;143723;600;48010;-86
2021/08/12 00:12:16;;;;;;;12.32;6.97;;;;;;;28.76;49.24;101297.09;143724;654;47004;-88
2021/08/12 00:14:43;;;;;;;9.90;5.72;;;;;;;28.80;48.77;101295.38;143727;645;46004;-87
2021/08/12 00:17:10;;;;;;;9.23;4.97;;;;;;;28.79;48.66;101296.50;143727;767;47002;-89
2021/08/12 00:19:38;;;;;;;11.63;5.22;;;;;;;28.82;49.24;101301.41;143726;592;46030;-88
2021/08/12 00:22:04;;;;;;;9.70;5.18;;;;;;;28.82;48.91;101291.16;143725;600;47002;-86
2021/08/12 00:24:32;;;;;;;7.30;5.03;;;;;;;28.82;49.59;101291.16;143720;568;47006;-87
2021/08/12 00:27:00;;;;;;;10.77;5.05;;;;;;;28.80;49.66;101284.31;143720;570;48006;-88
2021/08/12 00:29:27;;;;;;;8.70;5.07;;;;;;;28.79;49.88;101288.19;143720;573;47010;-88
2021/08/12 00:31:54;;;;;;;7.57;4.70;;;;;;;28.71;49.80;101285.00;143725;584;47004;-86
2021/08/12 00:34:21;;;;;;;10.30;5.68;;;;;;;28.71;49.98;101284.19;143725;567;45927;-87
2021/08/12 00:36:49;;;;;;;6.75;4.82;;;;;;;28.70;49.60;101280.59;143726;623;47002;-86
2021/08/12 00:39:17;;;;;;;8.32;4.75;;;;;;;28.64;50.05;101283.78;143725;576;46028;-86
2021/08/12 00:41:44;;;;;;;8.38;4.95;;;;;;;28.64;49.70;101290.13;143725;573;47004;-88
2021/08/12 00:44:11;;;;;;;6.57;5.03;;;;;;;28.61;49.49;101285.22;143727;584;45927;-87
2021/08/12 00:46:39;;;;;;;8.73;4.97;;;;;;;28.59;50.09;101284.69;143726;646;48002;-87
2021/08/12 00:49:06;;;;;;;6.78;4.95;;;;;;;28.62;49.59;101291.56;143724;611;48010;-86
2021/08/12 00:51:38;;;;;;;11.23;5.85;;;;;;;28.54;50.16;101282.88;143724;600;47004;-87
2021/08/12 00:54:06;;;;;;;8.98;5.78;;;;;;;28.47;50.78;101289.94;143723;592;50004;-86
2021/08/12 00:56:33;;;;;;;7.75;5.50;;;;;;;28.50;50.86;101286.56;143727;567;47002;-87
2021/08/12 00:59:01;;;;;;;14.32;6.32;;;;;;;28.49;51.17;101298.75;143723;599;47008;-86
2021/08/12 01:01:28;;;;;;;11.10;5.57;;;;;;;28.49;51.24;101296.78;143725;618;46015;-87
2021/08/12 01:04:01;;;;;;;8.27;5.85;;;;;;;28.47;51.41;101293.50;143720;584;49000;-87
2021/08/12 01:06:31;;;;;;;12.00;5.45;;;;;;;28.48;51.26;101283.28;143728;572;47004;-89
2021/08/12 01:09:12;;;;;;;11.52;5.65;;;;;;;28.48;51.56;101280.53;143723;592;47010;-87
2021/08/12 01:12:05;;;;;;;12.13;6.20;;;;;;;28.49;51.42;101280.19;143726;597;46002;-89
2021/08/12 01:14:50;;;;;;;10.07;5.70;;;;;;;28.47;51.37;101282.44;143725;594;45924;-88
2021/08/12 01:17:22;;;;;;;10.73;5.85;;;;;;;28.50;51.24;101276.31;143727;598;47002;-87
2021/08/12 01:20:31;;;;;;;12.93;5.95;;;;;;;28.45;51.66;101281.94;143727;597;46008;-88
2021/08/12 01:23:00;;;;;;;12.00;6.20;;;;;;;28.42;51.38;101277.00;143723;601;48004;-85
2021/08/12 01:25:32;;;;;;;10.68;6.00;;;;;;;28.44;51.63;101283.06;143725;600;45918;-87
2021/08/12 01:28:08;;;;;;;8.95;5.60;;;;;;;28.48;51.10;101280.53;143726;608;47002;-87
2021/08/12 01:30:57;;;;;;;10.30;6.25;;;;;;;28.53;50.81;101274.88;143727;572;46006;-87
2021/08/12 01:33:55;;;;;;;10.82;5.57;;;;;;;28.57;50.24;101282.25;143724;586;47002;-87
2021/08/12 01:36:24;;;;;;;7.57;5.57;;;;;;;28.49;50.30;101280.19;143727;630;45922;-88
2021/08/12 01:38:54;;;;;;;9.90;5.93;;;;;;;28.50;50.19;101284.59;143726;580;47008;-87
2021/08/12 01:41:22;;;;;;;8.60;4.80;;;;;;;28.54;50.11;101284.78;143725;649;46010;-88
2021/08/12 01:43:49;;;;;;;9.35;5.12;;;;;;;28.56;49.83;101290.84;143723;615;47004;-86
2021/08/12 01:46:17;;;;;;;9.95;5.90;;;;;;;28.51;50.27;101289.00;143728;589;45918;-86
2021/08/12 01:48:46;;;;;;;11.25;5.85;;;;;;;28.56;50.71;101279.78;143726;593;47004;-85
2021/08/12 01:51:14;;;;;;;11.18;5.57;;;;;;;28.58;50.87;101286.66;143724;572;46919;-87
2021/08/12 01:53:42;;;;;;;9.20;5.50;;;;;;;28.57;51.04;101287.78;143721;635;47010;-87
2021/08/12 01:56:10;;;;;;;6.95;5.65;;;;;;;28.56;50.97;101279.78;143728;598;45918;-87
2021/08/12 01:58:38;;;;;;;7.20;5.72;;;;;;;28.52;50.56;101279.59;143726;612;48002;-87
2021/08/12 02:01:05;;;;;;;12.07;5.82;;;;;;;28.50;50.66;101273.53;143726;575;46012;-86
2021/08/12 02:03:33;;;;;;;12.45;6.37;;;;;;;28.50;51.24;101267.22;143719;587;48004;-87
2021/08/12 02:06:02;;;;;;;15.35;7.18;;;;;;;28.47;51.41;101274.16;143726;569;46000;-86
2021/08/12 02:08:30;;;;;;;9.77;6.62;;;;;;;28.44;51.51;101270.06;143728;595;47004;-87
2021/08/12 02:10:57;;;;;;;10.88;6.12;;;;;;;28.43;51.33;101273.13;143726;598;46009;-87
2021/08/12 02:13:25;;;;;;;7.65;5.28;;;;;;;28.40;51.25;101273.75;143724;568;47002;-88
2021/08/12 02:15:52;;;;;;;10.40;5.75;;;;;;;28.36;51.23;101272.72;143725;635;46004;-87
2021/08/12 02:18:19;;;;;;;9.85;5.28;;;;;;;28.35;51.31;101265.56;143726;572;48004;-86
2021/08/12 02:20:52;;;;;;;9.95;5.87;;;;;;;28.33;51.26;101265.84;143725;574;47008;-87
2021/08/12 02:23:29;;;;;;;6.37;5.12;;;;;;;28.32;51.08;101263.41;143723;624;47004;-87
2021/08/12 02:26:22;;;;;;;11.90;5.75;;;;;;;28.32;51.67;101260.66;143727;598;46002;-87
2021/08/12 02:28:51;;;;;;;9.75;6.15;;;;;;;28.34;50.99;101250.91;143725;703;49002;-86
2021/08/12 02:31:20;;;;;;;11.35;6.65;;;;;;;28.34;51.53;101261.16;143725;594;46030;-87
2021/08/12 02:33:50;;;;;;;9.82;5.78;;;;;;;28.32;51.02;101252.38;143725;604;47003;-87
2021/08/12 02:36:17;;;;;;;8.60;5.28;;;;;;;28.36;51.25;101254.19;143725;608;46010;-86
2021/08/12 02:38:46;;;;;;;11.93;5.80;;;;;;;28.38;51.34;101251.94;143719;619;48008;-87
2021/08/12 02:41:17;;;;;;;8.40;5.50;;;;;;;28.39;50.94;101248.06;143725;578;46025;-87
2021/08/12 02:43:46;;;;;;;12.52;5.00;;;;;;;28.37;51.89;101243.97;143725;596;48004;-85
2021/08/12 02:46:16;;;;;;;7.90;5.60;;;;;;;28.35;51.66;101241.50;143726;573;45926;-87
2021/08/12 02:48:44;;;;;;;9.57;5.57;;;;;;;28.37;51.26;101252.28;143727;573;47014;-87
2021/08/12 02:51:14;;;;;;;10.13;6.03;;;;;;;28.37;51.24;101252.28;143725;596;47010;-87
2021/08/12 02:53:42;;;;;;;7.95;5.95;;;;;;;28.34;51.07;101245.41;143726;640;47002;-87
2021/08/12 02:56:11;;;;;;;11.07;5.55;;;;;;;28.34;51.50;101245.41;143728;646;45924;-89
2021/08/12 02:58:41;;;;;;;10.88;6.18;;;;;;;28.35;51.74;101254.53;143728;581;47004;-86
2021/08/12 03:01:09;;;;;;;11.10;6.10;;;;;;;28.34;52.01;101263.94;143725;580;47010;-87
2021/08/12 03:03:42;;;;;;;9.23;5.50;;;;;;;28.33;51.35;101256.75;143724;595;47002;-86
2021/08/12 03:06:13;;;;;;;8.27;5.78;;;;;;;28.31;51.14;101262.59;143726;591;45924;-87
2021/08/12 03:08:43;;;;;;;8.75;5.85;;;;;;;28.33;51.34;101263.09;143725;610;47006;-87
2021/08/12 03:11:11;;;;;;;9.30;6.00;;;;;;;28.35;51.75;101271.09;143724;597;47015;-89
2021/08/12 03:13:40;;;;;;;8.48;6.32;;;;;;;28.27;51.78;101273.44;143723;619;48002;-86
2021/08/12 03:16:08;;;;;;;13.18;6.40;;;;;;;28.27;52.21;101276.19;143728;592;45924;-85
2021/08/12 03:18:35;;;;;;;9.73;5.93;;;;;;;28.27;52.66;101281.72;143727;582;47006;-87
2021/08/12 03:21:10;;;;;;;10.07;6.25;;;;;;;28.23;52.78;101285.41;143725;568;46010;-86
2021/08/12 03:23:38;;;;;;;10.70;5.55;;;;;;;28.24;52.22;101278.75;143725;573;47004;-87
2021/08/12 03:26:05;;;;;;;12.73;6.35;;;;;;;28.24;52.12;101281.53;143728;638;45919;-87
2021/08/12 03:28:33;;;;;;;10.85;6.20;;;;;;;28.24;52.37;101285.09;143728;594;46006;-86
2021/08/12 03:31:00;;;;;;;10.45;6.22;;;;;;;28.23;52.14;101283.47;143724;576;47010;-87
2021/08/12 03:33:28;;;;;;;9.70;5.60;;;;;;;28.19;51.89;101276.09;143727;587;47004;-86
2021/08/12 03:35:55;;;;;;;10.57;5.57;;;;;;;28.20;51.95;101272.19;143726;604;45918;-88
2021/08/12 03:38:22;;;;;;;9.50;5.12;;;;;;;28.16;51.89;101269.25;143728;612;47004;-87
2021/08/12 03:40:49;;;;;;;9.05;5.80;;;;;;;28.17;51.69;101267.28;143715;583;49006;-87
2021/08/12 03:43:18;;;;;;;9.65;5.60;;;;;;;28.13;51.97;101267.06;143726;591;46008;-87
2021/08/12 03:45:47;;;;;;;8.45;5.70;;;;;;;28.11;52.02;101274.84;143726;615;45923;-86
2021/08/12 03:48:15;;;;;;;10.75;5.50;;;;;;;28.16;51.58;101291.34;143727;598;47002;-88
2021/08/12 03:50:42;;;;;;;8.90;5.25;;;;;;;28.19;52.20;101287.13;143725;594;47010;-86
2021/08/12 03:53:09;;;;;;;14.50;6.00;;;;;;;28.15;51.71;101295.22;143725;651;47015;-88
2021/08/12 03:55:35;;;;;;;10.35;5.47;;;;;;;28.11;51.81;101302.47;143724;649;46000;-87
2021/08/12 03:58:02;;;;;;;13.02;5.60;;;;;;;28.08;52.10;101309.38;143728;613;47004;-88
2021/08/12 04:00:29;;;;;;;11.43;6.05;;;;;;;28.06;52.25;101308.88;143724;602;47012;-87
2021/08/12 04:02:56;;;;;;;12.88;5.90;;;;;;;28.07;52.09;101316.03;143724;615;47002;-86
2021/08/12 04:05:23;;;;;;;10.65;5.53;;;;;;;28.08;52.00;101325.97;143725;602;45922;-87
2021/08/12 04:07:51;;;;;;;10.15;5.70;;;;;;;28.05;51.78;101323.00;143722;590;49008;-86
2021/08/12 04:10:18;;;;;;;8.55;5.55;;;;;;;28.05;51.94;101328.50;143725;659;47010;-87
2021/08/12 04:12:45;;;;;;;11.45;6.20;;;;;;;28.06;51.99;101330.97;143715;600;49004;-87
2021/08/12 04:15:13;;;;;;;10.48;5.82;;;;;;;28.10;51.83;101329.28;143727;584;45926;-85
2021/08/12 04:17:40;;;;;;;12.05;5.10;;;;;;;28.09;51.57;101333.13;143727;713;47003;-87
2021/08/12 04:20:07;;;;;;;15.88;5.82;;;;;;;28.10;51.87;101343.06;143723;590;47012;-86
2021/08/12 04:22:34;;;;;;;15.05;6.32;;;;;;;28.15;51.78;101342.16;143726;566;46010;-89
2021/08/12 04:25:02;;;;;;;11.68;5.53;;;;;;;28.15;51.43;101347.69;143727;602;46002;-86
2021/08/12 04:27:29;;;;;;;8.32;5.70;;;;;;;28.17;52.11;101341.84;143726;572;47004;-87
2021/08/12 04:29:56;;;;;;;13.18;5.93;;;;;;;28.15;52.13;101342.16;143725;613;47010;-88
2021/08/12 04:32:23;;;;;;;9.68;6.22;;;;;;;28.16;52.00;101334.69;143725;586;47003;-86
2021/08/12 04:34:51;;;;;;;8.13;5.40;;;;;;;28.20;51.61;101338.47;143727;599;45925;-86
2021/08/12 04:37:18;;;;;;;12.13;6.18;;;;;;;28.24;51.01;101339.53;143727;603;47004;-86
2021/08/12 04:39:45;;;;;;;8.30;5.57;;;;;;;28.29;50.88;101331.16;143726;600;47010;-87
2021/08/12 04:42:12;;;;;;;11.23;7.05;;;;;;;28.33;51.33;101337.69;143715;572;49004;-86
2021/08/12 04:44:40;;;;;;;8.43;7.18;;;;;;;28.35;51.09;101348.44;143725;610;46002;-86
2021/08/12 04:47:07;;;;;;;7.22;6.30;;;;;;;28.32;51.55;101344.38;143726;614;47018;-87
2021/08/12 04:49:34;;;;;;;10.32;6.35;;;;;;;28.38;51.57;101345.06;143726;651;47013;-89
2021/08/12 04:52:02;;;;;;;18.58;6.15;;;;;;;28.41;52.21;101350.00;143724;595;47012;-88
2021/08/12 04:54:29;;;;;;;9.35;6.00;;;;;;;28.42;51.89;101344.16;143726;606;46004;-87
2021/08/12 04:56:56;;;;;;;12.77;6.95;;;;;;;28.44;52.02;101344.69;143727;612;47002;-88
2021/08/12 04:59:23;;;;;;;9.82;6.00;;;;;;;28.50;51.14;101347.34;143723;604;48008;-87
2021/08/12 05:01:54;;;;;;;10.35;5.90;;;;;;;28.53;51.13;101343.94;143724;601;47013;-87
2021/08/12 05:04:21;;;;;;;11.05;6.32;;;;;;;28.57;51.30;101344.97;143727;602;45918;-88
2021/08/12 05:06:48;;;;;;;12.10;6.62;;;;;;;28.58;51.12;101346.63;143727;566;47006;-86
2021/08/12 05:09:15;;;;;;;9.20;5.53;;;;;;;28.64;51.50;101344.56;143724;573;47012;-89
2021/08/12 05:11:45;;;;;;;12.93;5.90;;;;;;;28.71;51.05;101358.81;143712;710;50008;-89
2021/08/12 05:14:13;;;;;;;10.13;6.35;;;;;;;28.78;50.69;101358.44;143720;600;47924;-87
2021/08/12 05:16:40;;;;;;;11.30;6.55;;;;;;;28.85;50.13;101354.12;143726;593;47002;-86
2021/08/12 05:19:06;;;;;;;7.22;5.80;;;;;;;28.90;50.50;101355.97;143723;603;47031;-88
2021/08/12 05:21:33;;;;;;;12.27;6.55;;;;;;;28.95;50.76;101364.16;143725;584;47004;-88
2021/08/12 05:24:01;;;;;;;8.50;6.20;;;;;;;28.96;50.01;101370.50;143728;600;45918;-88
2021/08/12 05:26:27;;;;;;;8.77;5.93;;;;;;;29.00;50.15;101364.06;143726;567;47004;-89
2021/08/12 05:28:54;;;;;;;9.48;7.20;;;;;;;29.08;49.78;101369.97;143725;609;47012;-88
2021/08/12 05:31:22;;;;;;;9.23;6.30;;;;;;;29.13;49.65;101378.19;143724;569;47003;-86
2021/08/12 05:33:50;;;;;;;10.00;6.75;;;;;;;29.05;50.18;101375.00;143725;613;47002;-86
2021/08/12 05:36:17;;;;;;;12.95;6.28;;;;;;;29.12;50.05;101382.06;143727;572;47004;-89
2021/08/12 05:38:44;;;;;;;8.25;5.87;;;;;;;29.18;50.39;101386.37;143725;610;47010;-86
2021/08/12 05:41:12;;;;;;;12.27;6.82;;;;;;;29.29;49.91;101393.31;143725;589;47004;-86
2021/08/12 05:43:40;;;;;;;9.93;7.00;;;;;;;29.36;49.91;101392.94;143727;655;46004;-88
2021/08/12 05:46:07;;;;;;;11.63;7.53;;;;;;;29.34;49.83;101400.69;143728;593;47002;-90
2021/08/12 05:48:34;;;;;;;10.85;6.95;;;;;;;29.34;50.11;101392.38;143721;602;49016;-89
2021/08/12 05:51:02;;;;;;;11.20;6.28;;;;;;;29.42;48.73;101385.31;143724;566;47004;-87
2021/08/12 05:53:30;;;;;;;11.93;6.07;;;;;;;29.48;48.88;101384.91;143728;593;45926;-88
2021/08/12 05:55:57;;;;;;;12.65;6.37;;;;;;;29.54;48.69;101398.63;143728;590;47002;-87
2021/08/12 05:58:24;;;;;;;9.95;6.68;;;;;;;29.59;48.89;101393.78;143725;589;47010;-87
2021/08/12 06:00:51;;;;;;;13.15;7.10;;;;;;;29.66;49.04;101396.13;143726;625;47004;-86
2021/08/12 06:03:18;;;;;;;11.40;6.28;;;;;;;29.74;48.81;101400.94;143725;608;47004;-87
2021/08/12 06:05:45;;;;;;;10.40;6.45;;;;;;;29.83;48.04;101405.72;143729;567;47002;-87
2021/08/12 06:08:14;;;;;;;9.88;6.18;;;;;;;29.86;47.76;101403.16;143723;653;48008;-88
2021/08/12 06:10:42;;;;;;;11.20;6.60;;;;;;;29.93;47.76;101409.03;143726;568;47004;-87
2021/08/12 06:13:09;;;;;;;7.18;5.70;;;;;;;29.99;47.02;101420.88;143726;600;45918;-88
2021/08/12 06:15:36;;;;;;;8.02;5.57;;;;;;;30.03;45.33;101416.31;143730;584;47004;-87
2021/08/12 06:18:08;;;;;;;11.93;5.30;;;;;;;30.02;44.37;101419.41;143718;574;49013;-88
2021/08/12 06:20:35;;;;;;;11.10;5.37;;;;;;;30.01;44.97;101420.56;143725;593;47002;-87
2021/08/12 06:23:05;;;;;;;9.05;6.22;;;;;;;30.03;45.78;101421.06;143724;617;45922;-89
2021/08/12 06:25:33;;;;;;;12.45;6.22;;;;;;;30.08;45.97;101420.94;143725;572;47004;-87
2021/08/12 06:28:01;;;;;;;10.63;6.65;;;;;;;30.18;46.51;101419.87;143722;566;48010;-87
2021/08/12 06:30:28;;;;;;;10.15;6.43;;;;;;;30.22;45.81;101418.91;143725;607;47016;-88
2021/08/12 06:32:55;;;;;;;11.05;6.43;;;;;;;30.31;45.42;101429.22;143728;603;46004;-87
2021/08/12 06:35:22;;;;;;;15.05;6.85;;;;;;;30.36;45.54;101423.56;143729;659;47004;-88
2021/08/12 06:37:51;;;;;;;19.83;6.43;;;;;;;30.39;45.88;101423.72;143725;573;47010;-88
2021/08/12 06:40:21;;;;;;;10.55;6.47;;;;;;;30.45;45.84;101435.50;143726;605;47010;-88
2021/08/12 06:42:49;;;;;;;16.37;7.12;;;;;;;30.49;45.72;101430.16;143724;588;46004;-87
2021/08/12 06:45:20;;;;;;;9.70;6.53;;;;;;;30.54;45.90;101428.06;143729;707;47006;-88
2021/08/12 06:47:48;;;;;;;10.35;7.20;;;;;;;30.55;45.10;101420.59;143723;592;47008;-89
2021/08/12 06:50:18;;;;;;;12.50;6.62;;;;;;;30.55;44.86;101417.81;143726;567;47004;-87
2021/08/12 06:52:45;;;;;;;9.82;7.47;;;;;;;30.62;44.78;101437.59;143718;572;50002;-87
2021/08/12 06:55:14;;;;;;;10.73;6.05;;;;;;;30.73;44.57;101445.62;143729;597;47004;-87
2021/08/12 06:57:41;;;;;;;11.48;7.00;;;;;;;30.76;44.59;101439.44;143724;613;47012;-87
2021/08/12 07:00:10;;;;;;;10.05;6.37;;;;;;;30.72;44.82;101442.03;143724;572;47002;-87
2021/08/12 07:02:37;;;;;;;11.43;5.93;;;;;;;30.80;44.07;101443.22;143728;569;46003;-87
2021/08/12 07:05:05;;;;;;;11.10;6.43;;;;;;;30.87;43.67;101443.59;143730;590;46006;-88
2021/08/12 07:07:32;;;;;;;12.95;6.53;;;;;;;30.96;44.02;101454.72;143726;637;46021;-85
2021/08/12 07:09:59;;;;;;;8.60;5.68;;;;;;;31.07;43.40;101456.06;143725;762;47002;-88
2021/08/12 07:12:26;;;;;;;10.15;5.55;;;;;;;31.15;42.71;101455.28;143728;580;45924;-88
2021/08/12 07:14:54;;;;;;;9.60;5.85;;;;;;;31.23;42.97;101463.97;143727;581;47006;-88
2021/08/12 07:17:21;;;;;;;11.48;6.18;;;;;;;31.33;42.98;101462.84;143725;680;47008;-89
2021/08/12 07:19:49;;;;;;;15.13;6.95;;;;;;;31.28;43.07;101461.84;143726;595;47004;-88
2021/08/12 07:22:18;;;;;;;11.95;6.22;;;;;;;31.29;43.19;101466.28;143728;591;45918;-87
2021/08/12 07:24:46;;;;;;;11.25;6.20;;;;;;;31.38;43.10;101466.28;143730;583;47002;-87
2021/08/12 07:27:13;;;;;;;11.10;6.68;;;;;;;31.45;42.08;101469.41;143720;570;50004;-89
2021/08/12 07:29:40;;;;;;;10.70;7.25;;;;;;;31.50;42.20;101468.44;143728;637;47004;-88
2021/08/12 07:32:08;;;;;;;11.00;6.37;;;;;;;31.53;42.22;101470.56;143729;576;45919;-88
2021/08/12 07:34:36;;;;;;;9.75;6.18;;;;;;;31.67;42.14;101473.22;143728;596;47002;-88
2021/08/12 07:37:04;;;;;;;10.43;6.75;;;;;;;31.76;42.34;101473.25;143729;586;46010;-90
2021/08/12 07:39:31;;;;;;;14.98;6.47;;;;;;;31.80;42.29;101470.63;143727;608;47004;-88
2021/08/12 07:41:59;;;;;;;10.18;6.40;;;;;;;31.78;42.52;101484.03;143729;586;46002;-87
2021/08/12 07:44:26;;;;;;;11.40;7.22;;;;;;;31.64;43.21;101479.41;143727;601;48002;-87
2021/08/12 07:46:53;;;;;;;10.55;6.85;;;;;;;31.68;43.79;101488.72;143727;586;46012;-86
2021/08/12 07:49:20;;;;;;;10.60;6.53;;;;;;;31.73;43.78;101483.03;143728;613;47004;-87
2021/08/12 07:51:47;;;;;;;11.90;6.50;;;;;;;31.82;42.96;101493.34;143729;598;45918;-86
2021/08/12 07:54:15;;;;;;;10.82;6.82;;;;;;;31.93;42.86;101503.00;143730;584;47002;-86
2021/08/12 07:56:42;;;;;;;10.02;7.15;;;;;;;31.96;42.74;101502.34;143727;617;47010;-86
2021/08/12 07:59:12;;;;;;;10.65;6.45;;;;;;;31.83;43.00;101506.91;143718;594;47004;-89
2021/08/12 08:01:40;;;;;;;10.02;6.35;;;;;;;31.84;42.87;101508.53;143726;569;46017;-85
2021/08/12 08:04:08;;;;;;;9.18;6.68;;;;;;;31.86;43.17;101519.34;143730;591;47004;-85
2021/08/12 08:06:35;;;;;;;11.90;6.70;;;;;;;31.87;43.75;101523.72;143726;579;47008;-85
2021/08/12 08:09:02;;;;;;;12.85;7.10;;;;;;;31.88;43.75;101525.37;143727;600;47003;-87
2021/08/12 08:11:31;;;;;;;14.90;7.75;;;;;;;31.87;44.17;101532.91;143730;587;45924;-86
2021/08/12 08:13:58;;;;;;;12.30;6.95;;;;;;;31.92;44.34;101533.88;143721;586;50006;-86
2021/08/12 08:16:26;;;;;;;9.65;7.57;;;;;;;32.03;44.77;101537.97;143727;573;47010;-85
2021/08/12 08:18:54;;;;;;;15.13;7.90;;;;;;;31.84;44.70;101549.41;143726;591;47004;-86
2021/08/12 08:21:21;;;;;;;8.52;6.72;;;;;;;31.78;44.80;101537.59;143728;572;46002;-88
2021/08/12 08:23:48;;;;;;;11.00;7.15;;;;;;;31.99;45.85;101537.81;143729;594;47004;-86
2021/08/12 08:26:18;;;;;;;10.50;7.75;;;;;;;32.10;45.62;101540.25;143727;578;46918;-88
2021/08/12 08:28:45;;;;;;;9.88;7.10;;;;;;;32.09;45.79;101536.69;143725;612;47002;-87
2021/08/12 08:31:13;;;;;;;12.52;7.20;;;;;;;32.13;45.49;101537.66;143730;591;45924;-87
2021/08/12 08:33:40;;;;;;;8.95;6.85;;;;;;;32.11;45.34;101539.97;143725;619;49004;-89
2021/08/12 08:36:07;;;;;;;8.93;6.68;;;;;;;32.16;45.03;101537.00;143724;584;48008;-88
2021/08/12 08:38:34;;;;;;;7.78;6.45;;;;;;;32.34;44.96;101532.28;143723;582;48002;-86
2021/08/12 08:41:02;;;;;;;11.20;6.53;;;;;;;32.35;44.02;101538.66;143729;631;45924;-86
2021/08/12 08:43:32;;;;;;;9.00;6.28;;;;;;;32.45;44.05;101537.50;143728;579;47004;-84
2021/08/12 08:46:01;;;;;;;10.45;6.97;;;;;;;32.42;43.88;101533.44;143726;580;47009;-87
2021/08/12 08:48:31;;;;;;;8.05;6.45;;;;;;;32.37;43.83;101535.56;143724;619;48014;-87
2021/08/12 08:51:00;;;;;;;11.48;6.55;;;;;;;32.43;44.08;101537.00;143726;610;46006;-86
2021/08/12 08:53:27;;;;;;;7.85;6.57;;;;;;;32.54;42.21;101529.97;143727;614;48002;-87
2021/08/12 08:55:54;;;;;;;8.70;5.80;;;;;;;32.64;40.33;101529.63;143724;656;47012;-87
2021/08/12 08:58:21;;;;;;;8.25;6.15;;;;;;;32.77;41.72;101533.38;143727;568;47004;-86
2021/08/12 09:00:49;;;;;;;7.10;5.40;;;;;;;32.96;40.44;101532.19;143728;598;45919;-86
2021/08/12 09:03:19;;;;;;;11.63;6.07;;;;;;;33.09;41.21;101535.91;143728;581;47002;-86
2021/08/12 09:05:46;;;;;;;9.73;5.75;;;;;;;33.12;40.64;101535.22;143726;584;47012;-86
2021/08/12 09:08:15;;;;;;;10.45;5.82;;;;;;;33.33;39.92;101529.75;143725;574;49014;-88
2021/08/12 09:10:42;;;;;;;7.28;5.43;;;;;;;33.38;38.82;101528.78;143725;641;47917;-86
2021/08/12 09:13:09;;;;;;;9.27;5.62;;;;;;;33.37;37.76;101529.91;143729;616;47004;-87
2021/08/12 09:15:44;;;;;;;9.45;5.53;;;;;;;33.52;38.66;101520.19;143727;603;47011;-85
2021/08/12 09:18:25;;;;;;;9.30;5.70;;;;;;;33.63;37.83;101518.63;143727;612;48004;-86
2021/08/12 09:20:55;;;;;;;8.63;5.53;;;;;;;33.63;38.50;101524.19;143729;578;45917;-86
2021/08/12 09:23:24;;;;;;;7.95;5.50;;;;;;;33.62;36.62;101525.34;143728;575;48005;-86
2021/08/12 09:25:51;;;;;;;6.93;5.07;;;;;;;33.65;37.68;101526.62;143726;575;47010;-87
2021/08/12 09:28:21;;;;;;;10.95;5.30;;;;;;;33.83;37.44;101519.78;143726;572;47575;-87
2021/08/12 09:31:05;;;;;;;7.12;5.62;;;;;;;33.94;37.37;101508.28;143729;568;46006;-87
2021/08/12 09:33:35;;;;;;;6.93;5.32;;;;;;;34.01;37.08;101501.00;143728;572;47002;-86
2021/08/12 09:36:03;;;;;;;6.12;5.53;;;;;;;34.10;36.98;101500.94;143728;594;46021;-87
2021/08/12 09:38:30;;;;;;;10.48;5.32;;;;;;;33.96;37.54;101504.00;143727;575;47004;-86
2021/08/12 09:41:01;;;;;;;9.95;5.32;;;;;;;34.04;36.20;101501.47;143728;602;45925;-86
2021/08/12 09:43:37;;;;;;;9.80;6.45;;;;;;;34.10;36.60;101498.16;143724;639;48002;-86
2021/08/12 09:46:08;;;;;;;9.48;5.60;;;;;;;34.21;35.95;101500.50;143729;601;46006;-86
2021/08/12 09:48:35;;;;;;;9.57;5.68;;;;;;;34.26;36.29;101503.09;143727;575;47004;-86
2021/08/12 09:51:09;;;;;;;6.62;4.93;;;;;;;34.40;35.73;101500.00;143727;573;46002;-85
2021/08/12 09:53:36;;;;;;;6.53;5.60;;;;;;;34.53;34.86;101495.28;143727;677;49004;-87
2021/08/12 09:56:10;;;;;;;7.03;5.60;;;;;;;34.68;35.07;101499.41;143728;588;46010;-87
2021/08/12 09:58:39;;;;;;;7.12;5.15;;;;;;;34.70;33.84;101494.28;143728;604;47002;-89
2021/08/12 10:01:25;;;;;;;9.15;5.35;;;;;;;34.86;34.73;101508.41;143729;680;45925;-86
2021/08/12 10:03:54;;;;;;;6.65;5.15;;;;;;;34.97;33.98;101506.81;143729;624;47002;-87
2021/08/12 10:06:24;;;;;;;9.73;5.50;;;;;;;34.88;33.59;101501.31;143725;605;47010;-84
2021/08/12 10:08:53;;;;;;;11.38;5.43;;;;;;;35.03;34.71;101504.59;143725;608;47004;-85
2021/08/12 10:11:31;;;;;;;12.63;6.28;;;;;;;34.99;34.58;101503.66;143728;632;45918;-87
2021/08/12 10:14:05;;;;;;;6.90;5.50;;;;;;;35.03;33.78;101496.22;143730;586;47004;-87
2021/08/12 10:16:34;;;;;;;6.32;5.70;;;;;;;34.95;33.89;101500.75;143729;595;46008;-86
2021/08/12 10:19:04;;;;;;;9.32;4.80;;;;;;;34.96;34.15;101502.38;143723;626;47004;-88
2021/08/12 10:21:35;;;;;;;6.32;5.15;;;;;;;34.94;33.75;101507.50;143728;581;45924;-86
2021/08/12 10:24:06;;;;;;;8.18;5.00;;;;;;;34.84;33.77;101502.34;143726;631;49008;-86
2021/08/12 10:26:35;;;;;;;10.32;5.53;;;;;;;34.86;33.74;101497.25;143727;579;47008;-86
2021/08/12 10:29:12;;;;;;;14.68;5.03;;;;;;;35.05;34.89;101503.06;143727;590;47002;-86
2021/08/12 10:31:43;;;;;;;5.75;5.15;;;;;;;35.24;34.52;101498.88;143727;584;45925;-86
2021/08/12 10:34:12;;;;;;;7.43;5.62;;;;;;;35.18;33.38;101503.91;143730;599;47004;-87
2021/08/12 10:36:40;;;;;;;7.35;5.45;;;;;;;35.13;33.62;101481.78;143728;618;46010;-87
2021/08/12 10:39:09;;;;;;;7.55;5.00;;;;;;;35.19;33.59;101485.97;143726;612;47002;-88
2021/08/12 10:41:38;;;;;;;9.52;5.10;;;;;;;35.14;33.60;101482.62;143728;593;46002;-85
2021/08/12 10:44:05;;;;;;;9.32;5.45;;;;;;;35.10;33.91;101490.06;143730;573;47004;-87
2021/08/12 10:46:38;;;;;;;5.57;4.70;;;;;;;34.91;34.74;101491.41;143727;618;47010;-86
2021/08/12 10:49:31;;;;;;;5.75;4.87;;;;;;;34.89;34.67;101490.94;143724;578;47004;-86
2021/08/12 10:52:09;;;;;;;8.02;4.47;;;;;;;34.67;34.04;101492.19;143729;573;45918;-88
2021/08/12 10:54:41;;;;;;;7.75;4.78;;;;;;;34.65;35.14;101480.56;143728;612;49004;-87
2021/08/12 10:57:33;;;;;;;6.60;4.95;;;;;;;34.75;33.99;101477.34;143727;584;46010;-87
2021/08/12 11:00:00;;;;;;;8.43;4.72;;;;;;;34.86;34.13;101486.06;143722;619;48002;-87
2021/08/12 11:02:45;;;;;;;7.37;4.85;;;;;;;35.05;34.23;101479.94;143728;578;45925;-86
2021/08/12 11:05:13;;;;;;;7.75;5.07;;;;;;;35.11;33.71;101472.12;143729;605;47004;-85
2021/08/12 11:07:50;;;;;;;10.70;4.55;;;;;;;35.05;33.43;101482.72;143725;591;47008;-86
2021/08/12 11:10:18;;;;;;;7.75;4.35;;;;;;;34.80;33.83;101470.72;143727;569;47004;-86
2021/08/12 11:13:31;;;;;;;6.85;4.78;;;;;;;34.71;33.47;101468.81;143730;594;45918;-87
2021/08/12 11:15:59;;;;;;;8.73;4.43;;;;;;;34.72;33.67;101464.88;143728;609;48013;-86
2021/08/12 11:19:01;;;;;;;5.78;4.57;;;;;;;34.95;33.89;101467.25;143719;570;49010;-87
2021/08/12 11:21:46;;;;;;;6.72;4.35;;;;;;;35.03;33.40;101471.94;143727;577;47002;-87
2021/08/12 11:24:50;;;;;;;9.00;5.00;;;;;;;35.21;33.28;101463.31;143726;615;45924;-88
2021/08/12 11:27:36;;;;;;;6.68;4.68;;;;;;;35.20;32.63;101467.25;143731;582;46015;-87
2021/08/12 11:30:38;;;;;;;7.87;4.25;;;;;;;35.06;32.80;101470.41;143723;592;49017;-87
2021/08/12 11:33:23;;;;;;;12.52;4.70;;;;;;;35.11;33.36;101461.81;143726;610;47004;-85
2021/08/12 11:36:12;;;;;;;6.22;5.15;;;;;;;35.19;33.74;101465.62;143729;594;45924;-86